createdAt,value
2019-02-08T00:01:18.858Z,97.54
2019-02-08T00:03:48.062Z,97.78
2019-02-08T00:06:17.208Z,98.18
2019-02-08T00:08:46.337Z,98.28
2019-02-08T00:11:15.642Z,98.37
2019-02-08T00:13:44.764Z,97.99
2019-02-08T00:16:13.997Z,97.74
2019-02-08T00:18:43.531Z,97.47
2019-02-08T00:21:12.742Z,97.61
2019-02-08T00:23:41.828Z,98.10
2019-02-08T00:26:11.008Z,98.29
2019-02-08T00:28:40.148Z,98.56
2019-02-08T00:31:09.392Z,98.74
2019-02-08T00:33:38.516Z,98.56
2019-02-08T00:36:07.698Z,97.75
2019-02-08T00:38:36.835Z,97.63
2019-02-08T00:41:05.964Z,98.21
2019-02-08T00:43:35.165Z,98.53
2019-02-08T00:46:04.857Z,98.53
2019-02-08T00:48:34.003Z,98.69
2019-02-08T00:51:03.527Z,98.66
2019-02-08T00:53:33.662Z,98.62
2019-02-08T00:56:02.957Z,98.84
2019-02-08T00:58:32.102Z,98.78
2019-02-08T01:01:01.221Z,98.68
2019-02-08T01:03:30.346Z,98.64
2019-02-08T01:05:59.514Z,98.81
2019-02-08T01:08:28.610Z,99.15
2019-02-08T01:10:57.706Z,98.52
2019-02-08T01:13:28.459Z,98.40
2019-02-08T01:15:57.867Z,98.40
2019-02-08T01:18:27.004Z,97.91
2019-02-08T01:20:56.182Z,97.20
2019-02-08T01:23:25.512Z,97.24
2019-02-08T01:25:54.652Z,97.12
2019-02-08T01:28:23.741Z,97.14
2019-02-08T01:30:52.864Z,96.95
2019-02-08T01:33:22.001Z,96.92
2019-02-08T01:35:51.097Z,96.96
2019-02-08T01:38:20.231Z,97.10
2019-02-08T01:40:49.326Z,97.12
2019-02-08T01:43:18.466Z,97.08
2019-02-08T01:45:47.853Z,96.64
2019-02-08T01:48:17.053Z,96.51
2019-02-08T01:50:46.186Z,96.37
2019-02-08T01:53:15.341Z,96.73
2019-02-08T01:55:44.496Z,96.33
2019-02-08T01:58:13.651Z,95.94
2019-02-08T02:00:44.070Z,96.54
2019-02-08T02:03:13.175Z,96.67
2019-02-08T02:05:42.382Z,96.88
2019-02-08T02:08:11.640Z,97.05
2019-02-08T02:10:42.424Z,96.96
2019-02-08T02:13:12.760Z,96.61
2019-02-08T02:15:42.104Z,96.53
2019-02-08T02:18:12.459Z,96.81
2019-02-08T02:20:42.900Z,96.60
2019-02-08T02:23:14.247Z,96.92
2019-02-08T02:25:43.451Z,97.50
2019-02-08T02:28:12.767Z,97.11
2019-02-08T02:30:42.063Z,97.38
2019-02-08T02:33:12.256Z,97.45
2019-02-08T02:35:41.580Z,97.51
2019-02-08T02:38:10.733Z,97.82
2019-02-08T02:40:39.856Z,98.01
2019-02-08T02:43:10.526Z,98.25
2019-02-08T02:45:40.582Z,98.45
2019-02-08T02:48:12.622Z,98.71
2019-02-08T02:50:43.026Z,98.76
2019-02-08T02:53:12.328Z,98.41
2019-02-08T02:55:41.541Z,98.45
2019-02-08T02:58:10.928Z,98.52
2019-02-08T03:00:45.265Z,98.18
2019-02-08T03:03:15.622Z,98.42
2019-02-08T03:05:44.907Z,97.75
2019-02-08T03:08:15.603Z,97.91
2019-02-08T03:10:45.274Z,98.00
2019-02-08T03:13:15.325Z,98.08
2019-02-08T03:15:44.453Z,97.56
2019-02-08T03:18:13.610Z,97.10
2019-02-08T03:20:42.763Z,96.95
2019-02-08T03:23:12.279Z,97.15
2019-02-08T03:25:41.404Z,97.60
2019-02-08T03:28:10.516Z,97.96
2019-02-08T03:30:58.668Z,97.98
2019-02-08T03:33:28.723Z,98.02
2019-02-08T03:35:57.837Z,98.34
2019-02-08T03:38:26.941Z,98.62
2019-02-08T03:40:56.097Z,97.70
2019-02-08T03:43:26.016Z,98.20
2019-02-08T03:45:55.494Z,98.19
2019-02-08T03:48:26.629Z,97.96
2019-02-08T03:50:57.218Z,98.29
2019-02-08T03:53:28.426Z,98.73
2019-02-08T03:55:59.400Z,98.67
2019-02-08T03:58:28.497Z,98.73
2019-02-08T04:01:03.107Z,99.05
2019-02-08T04:03:32.246Z,99.00
2019-02-08T04:06:01.623Z,98.55
2019-02-08T04:08:30.783Z,97.87
2019-02-08T04:10:59.923Z,97.75
2019-02-08T04:13:29.044Z,97.97
2019-02-08T04:15:58.160Z,98.11
2019-02-08T04:18:27.256Z,98.14
2019-02-08T04:20:56.396Z,98.31
2019-02-08T04:23:25.568Z,98.42
2019-02-08T04:25:54.662Z,98.68
2019-02-08T04:28:23.816Z,98.50
2019-02-08T04:30:52.977Z,98.41
2019-02-08T04:33:22.099Z,98.95
2019-02-08T04:35:51.199Z,99.20
2019-02-08T04:38:20.357Z,99.63
2019-02-08T04:40:49.582Z,99.51
2019-02-08T04:43:19.182Z,99.44
2019-02-08T04:45:48.504Z,99.30
2019-02-08T04:48:17.624Z,99.37
2019-02-08T04:50:46.718Z,99.15
2019-02-08T04:53:15.851Z,99.28
2019-02-08T04:55:45.344Z,99.34
2019-02-08T04:58:14.494Z,99.18
2019-02-08T05:00:44.834Z,99.58
2019-02-08T05:03:13.967Z,99.47
2019-02-08T05:05:43.067Z,99.50
2019-02-08T05:08:12.271Z,99.66
2019-02-08T05:10:41.363Z,99.36
2019-02-08T05:13:10.517Z,99.49
2019-02-08T05:15:39.652Z,99.68
2019-02-08T05:18:08.776Z,99.53
2019-02-08T05:20:37.874Z,99.60
2019-02-08T05:23:07.009Z,99.63
2019-02-08T05:25:36.144Z,99.14
2019-02-08T05:28:06.078Z,98.94
2019-02-08T05:30:36.152Z,99.03
2019-02-08T05:33:05.920Z,99.25
2019-02-08T05:35:35.094Z,99.45
2019-02-08T05:38:04.539Z,98.69
2019-02-08T05:40:33.757Z,98.64
2019-02-08T05:43:05.014Z,98.30
2019-02-08T05:45:34.114Z,98.50
2019-02-08T05:48:03.224Z,98.65
2019-02-08T05:50:32.318Z,98.44
2019-02-08T05:53:01.589Z,98.61
2019-02-08T05:55:31.344Z,98.95
2019-02-08T05:58:01.081Z,98.83
2019-02-08T06:00:36.381Z,98.44
2019-02-08T06:03:06.312Z,98.49
2019-02-08T06:05:35.495Z,98.12
2019-02-08T06:08:04.666Z,97.76
2019-02-08T06:10:33.802Z,97.97
2019-02-08T06:13:03.487Z,97.98
2019-02-08T06:15:32.598Z,97.85
2019-02-08T06:18:01.729Z,98.10
2019-02-08T06:20:30.825Z,98.33
2019-02-08T06:22:59.959Z,98.44
2019-02-08T06:25:29.368Z,98.04
2019-02-08T06:27:58.551Z,97.73
2019-02-08T06:30:27.652Z,97.53
2019-02-08T06:32:56.773Z,97.99
2019-02-08T06:35:26.723Z,98.17
2019-02-08T06:37:56.116Z,98.24
2019-02-08T06:40:25.888Z,97.99
2019-02-08T06:42:55.046Z,97.51
2019-02-08T06:45:25.097Z,97.45
2019-02-08T06:47:54.244Z,97.67
2019-02-08T06:50:24.375Z,97.60
2019-02-08T06:52:53.894Z,97.46
2019-02-08T06:55:23.443Z,97.39
2019-02-08T06:57:58.974Z,97.37
2019-02-08T07:00:47.349Z,97.54
2019-02-08T07:03:44.704Z,97.68
2019-02-08T07:06:38.842Z,97.96
2019-02-08T07:09:41.441Z,98.36
2019-02-08T07:12:32.684Z,98.47
2019-02-08T07:15:19.798Z,98.71
2019-02-08T07:17:56.778Z,98.63
2019-02-08T07:20:50.638Z,98.53
2019-02-08T07:23:34.267Z,98.64
2019-02-08T07:26:17.377Z,98.68
2019-02-08T07:28:55.063Z,98.76
2019-02-08T07:31:43.190Z,98.74
2019-02-08T07:34:29.978Z,98.37
2019-02-08T07:37:18.228Z,98.04
2019-02-08T07:40:02.096Z,97.95
2019-02-08T07:42:49.677Z,98.05
2019-02-08T07:45:32.415Z,97.95
2019-02-08T07:48:11.579Z,97.86
2019-02-08T07:50:52.610Z,97.80
2019-02-08T07:53:50.137Z,97.53
2019-02-08T07:56:26.361Z,97.40
2019-02-08T07:59:17.237Z,97.10
2019-02-08T08:02:05.361Z,96.97
2019-02-08T08:04:58.177Z,97.20
2019-02-08T08:07:46.375Z,97.05
2019-02-08T08:10:25.620Z,96.98
2019-02-08T08:13:27.152Z,97.17
2019-02-08T08:16:14.540Z,97.40
2019-02-08T08:18:53.128Z,97.57
2019-02-08T08:21:40.556Z,97.36
2019-02-08T08:24:18.463Z,97.31
2019-02-08T08:26:59.630Z,97.51
2019-02-08T08:29:49.015Z,97.44
2019-02-08T08:32:38.844Z,97.53
2019-02-08T08:36:08.827Z,97.61
2019-02-08T08:39:08.971Z,97.48
2019-02-08T08:42:09.270Z,97.19
2019-02-08T08:45:15.985Z,96.93
2019-02-08T08:48:06.904Z,96.95
2019-02-08T08:51:26.126Z,96.95
2019-02-08T08:54:42.492Z,96.86
2019-02-08T08:58:13.595Z,96.63
2019-02-08T09:01:32.602Z,96.56
2019-02-08T09:04:42.887Z,96.63
2019-02-08T09:07:46.739Z,96.61
2019-02-08T09:10:50.498Z,96.11
2019-02-08T09:14:03.792Z,96.14
2019-02-08T09:16:59.547Z,96.18
2019-02-08T09:20:21.930Z,95.93
2019-02-08T09:23:26.774Z,95.27
2019-02-08T09:26:34.117Z,95.34
2019-02-08T09:29:32.647Z,95.32
2019-02-08T09:32:37.163Z,95.36
2019-02-08T09:35:42.136Z,95.34
2019-02-08T09:39:05.547Z,95.21
2019-02-08T09:42:06.971Z,94.83
2019-02-08T09:45:00.956Z,94.44
2019-02-08T09:48:16.224Z,94.39
2019-02-08T09:51:04.485Z,94.91
2019-02-08T09:54:10.821Z,93.98
2019-02-08T09:57:15.230Z,94.31
2019-02-08T10:00:21.970Z,93.87
2019-02-08T10:03:31.169Z,93.38
2019-02-08T10:06:27.156Z,92.81
2019-02-08T10:09:25.425Z,91.82
2019-02-08T10:12:43.350Z,92.09
2019-02-08T10:15:55.474Z,91.86
2019-02-08T10:19:00.717Z,91.17
2019-02-08T10:21:49.596Z,91.04
2019-02-08T10:24:54.829Z,91.14
2019-02-08T10:28:16.712Z,91.44
2019-02-08T10:31:35.030Z,91.32
2019-02-08T10:34:32.818Z,91.37
2019-02-08T10:37:40.753Z,91.25
2019-02-08T10:41:03.530Z,90.79
2019-02-08T10:44:10.001Z,90.75
2019-02-08T10:47:15.270Z,89.63
2019-02-08T10:50:22.722Z,89.96
2019-02-08T10:53:54.422Z,89.47
2019-02-08T10:56:50.793Z,89.67
2019-02-08T11:00:08.641Z,89.44
2019-02-08T11:03:26.838Z,90.03
2019-02-08T11:06:28.196Z,89.99
2019-02-08T11:09:33.148Z,89.69
2019-02-08T11:12:49.524Z,90.13
2019-02-08T11:16:04.622Z,89.99
2019-02-08T11:19:16.660Z,89.89
2019-02-08T11:21:46.570Z,89.74
2019-02-08T11:24:17.061Z,89.57
2019-02-08T11:26:46.313Z,89.91
2019-02-08T11:29:15.429Z,90.30
2019-02-08T11:31:44.565Z,90.05
2019-02-08T11:34:13.751Z,90.08
2019-02-08T11:36:42.888Z,89.38
2019-02-08T11:39:16.138Z,89.82
2019-02-08T11:41:46.478Z,89.85
2019-02-08T11:44:16.143Z,89.77
2019-02-08T11:46:45.275Z,89.88
2019-02-08T11:49:14.524Z,89.94
2019-02-08T11:51:43.658Z,89.42
2019-02-08T11:54:12.845Z,90.23
2019-02-08T11:56:41.900Z,89.18
2019-02-08T11:59:11.184Z,88.75
2019-02-08T12:01:45.237Z,88.90
2019-02-08T12:04:14.378Z,89.07
2019-02-08T12:06:43.663Z,88.57
2019-02-08T12:09:18.181Z,88.26
2019-02-08T12:11:47.468Z,88.45
2019-02-08T12:14:16.607Z,88.33
2019-02-08T12:16:45.843Z,88.18
2019-02-08T12:19:15.114Z,87.72
2019-02-08T12:21:44.304Z,87.95
2019-02-08T12:24:13.514Z,88.11
2019-02-08T12:26:42.638Z,87.69
2019-02-08T12:29:11.729Z,87.44
2019-02-08T12:31:40.852Z,87.59
2019-02-08T12:34:10.340Z,87.96
2019-02-08T12:36:39.606Z,87.42
2019-02-08T12:39:12.454Z,87.54
2019-02-08T12:41:42.267Z,87.96
2019-02-08T12:44:12.166Z,87.35
2019-02-08T12:46:41.273Z,86.76
2019-02-08T12:49:10.526Z,87.34
2019-02-08T12:51:39.782Z,87.10
2019-02-08T12:54:08.921Z,87.01
2019-02-08T12:56:45.161Z,87.56
2019-02-08T12:59:08.963Z,87.17
2019-02-08T13:01:38.248Z,87.31
2019-02-08T13:04:07.623Z,87.10
2019-02-08T13:06:36.774Z,87.41
2019-02-08T13:09:10.558Z,87.40
2019-02-08T13:11:39.767Z,86.90
2019-02-08T13:14:09.009Z,87.25
2019-02-08T13:16:38.243Z,87.84
2019-02-08T13:19:10.276Z,87.66
2019-02-08T13:21:39.597Z,87.33
2019-02-08T13:24:09.132Z,87.12
2019-02-08T13:26:38.264Z,87.44
2019-02-08T13:29:07.650Z,87.65
2019-02-08T13:31:36.777Z,87.55
2019-02-08T13:34:06.321Z,86.95
2019-02-08T13:36:35.469Z,87.27
2019-02-08T13:39:07.852Z,87.58
2019-02-08T13:41:36.995Z,87.84
2019-02-08T13:44:06.160Z,88.12
2019-02-08T13:46:35.507Z,87.66
2019-02-08T13:49:04.729Z,88.10
2019-02-08T13:51:33.856Z,88.38
2019-02-08T13:54:03.161Z,88.66
2019-02-08T13:56:32.307Z,88.19
2019-02-08T13:59:01.420Z,88.69
2019-02-08T14:01:30.779Z,88.68
2019-02-08T14:03:59.889Z,88.26
2019-02-08T14:06:29.145Z,88.54
2019-02-08T14:08:58.789Z,88.46
2019-02-08T14:11:27.950Z,88.24
2019-02-08T14:13:57.620Z,88.49
2019-02-08T14:16:26.893Z,88.16
2019-02-08T14:18:55.981Z,88.73
2019-02-08T14:21:25.421Z,88.30
2019-02-08T14:23:54.529Z,87.80
2019-02-08T14:26:23.937Z,88.43
2019-02-08T14:28:53.085Z,88.30
2019-02-08T14:31:22.193Z,88.24
2019-02-08T14:33:51.355Z,88.47
2019-02-08T14:36:20.492Z,88.31
2019-02-08T14:38:49.600Z,88.10
2019-02-08T14:41:20.271Z,87.98
2019-02-08T14:43:49.594Z,88.10
2019-02-08T14:46:18.701Z,87.42
2019-02-08T14:48:47.839Z,87.13
2019-02-08T14:51:16.982Z,87.36
2019-02-08T14:53:46.100Z,87.58
2019-02-08T14:56:15.250Z,87.69
2019-02-08T14:58:44.432Z,87.04
2019-02-08T15:01:14.765Z,87.15
2019-02-08T15:03:43.971Z,87.11
2019-02-08T15:06:15.499Z,86.36
2019-02-08T15:08:44.720Z,86.79
2019-02-08T15:11:13.832Z,87.18
2019-02-08T15:13:42.959Z,87.57
2019-02-08T15:16:12.105Z,87.49
2019-02-08T15:18:41.259Z,87.66
2019-02-08T15:21:10.464Z,87.72
2019-02-08T15:23:39.593Z,88.08
2019-02-08T15:26:08.680Z,87.85
2019-02-08T15:28:37.830Z,87.66
2019-02-08T15:31:07.101Z,88.08
2019-02-08T15:33:36.246Z,88.79
2019-02-08T15:36:05.601Z,88.70
2019-02-08T15:38:34.700Z,89.62
2019-02-08T15:41:03.906Z,90.10
2019-02-08T15:43:33.722Z,89.71
2019-02-08T15:46:05.169Z,89.46
2019-02-08T15:48:34.323Z,89.49
2019-02-08T15:51:03.457Z,89.79
2019-02-08T15:53:32.600Z,90.38
2019-02-08T15:56:06.505Z,91.20
2019-02-08T15:58:35.671Z,91.35
2019-02-08T16:01:08.773Z,91.50
2019-02-08T16:03:37.977Z,92.00
2019-02-08T16:06:07.251Z,92.03
2019-02-08T16:08:36.356Z,92.13
2019-02-08T16:11:05.878Z,91.68
2019-02-08T16:13:35.006Z,91.56
2019-02-08T16:16:05.125Z,91.86
2019-02-08T16:18:34.265Z,91.29
2019-02-08T16:21:03.531Z,91.22
2019-02-08T16:23:32.752Z,91.58
2019-02-08T16:26:01.923Z,91.88
2019-02-08T16:28:31.022Z,91.79
2019-02-08T16:31:00.122Z,91.23
2019-02-08T16:33:29.350Z,91.73
2019-02-08T16:35:58.486Z,91.92
2019-02-08T16:38:27.685Z,91.95
2019-02-08T16:40:56.808Z,91.85
2019-02-08T16:43:26.012Z,91.73
2019-02-08T16:45:55.156Z,92.47
2019-02-08T16:48:24.371Z,91.64
2019-02-08T16:50:53.570Z,91.49
2019-02-08T16:53:22.738Z,91.57
2019-02-08T16:55:52.150Z,91.68
2019-02-08T16:58:21.272Z,91.46
2019-02-08T17:00:50.583Z,91.51
2019-02-08T17:03:19.729Z,91.44
2019-02-08T17:05:48.837Z,91.68
2019-02-08T17:08:18.283Z,91.79
2019-02-08T17:10:47.425Z,91.93
2019-02-08T17:13:16.582Z,91.56
2019-02-08T17:15:45.723Z,91.57
2019-02-08T17:18:15.244Z,91.52
2019-02-08T17:20:46.150Z,91.26
2019-02-08T17:23:15.414Z,90.69
2019-02-08T17:25:44.572Z,91.24
2019-02-08T17:28:14.076Z,91.24
2019-02-08T17:30:43.325Z,90.68
2019-02-08T17:33:12.623Z,91.04
2019-02-08T17:35:41.726Z,90.51
2019-02-08T17:38:10.831Z,90.49
2019-02-08T17:40:43.393Z,90.39
2019-02-08T17:43:12.441Z,90.51
2019-02-08T17:45:41.628Z,90.61
2019-02-08T17:48:13.711Z,90.11
2019-02-08T17:50:43.096Z,90.66
2019-02-08T17:53:12.237Z,90.38
2019-02-08T17:55:41.374Z,90.58
2019-02-08T17:58:10.976Z,90.24
2019-02-08T18:00:45.170Z,89.76
2019-02-08T18:03:14.264Z,90.21
2019-02-08T18:05:43.406Z,90.52
2019-02-08T18:08:12.524Z,89.44
2019-02-08T18:10:43.332Z,89.68
2019-02-08T18:13:13.689Z,89.92
2019-02-08T18:15:42.811Z,90.55
2019-02-08T18:18:14.522Z,90.12
2019-02-08T18:20:45.816Z,90.48
2019-02-08T18:23:14.919Z,89.63
2019-02-08T18:25:44.056Z,88.89
2019-02-08T18:28:13.163Z,89.50
2019-02-08T18:30:42.338Z,89.94
2019-02-08T18:33:11.428Z,89.74
2019-02-08T18:35:40.787Z,89.92
2019-02-08T18:38:10.225Z,89.90
2019-02-08T18:40:39.462Z,90.23
2019-02-08T18:43:08.902Z,90.02
2019-02-08T18:45:38.072Z,90.31
2019-02-08T18:48:07.206Z,89.73
2019-02-08T18:50:41.496Z,89.91
2019-02-08T18:53:10.720Z,89.45
2019-02-08T18:55:39.864Z,89.37
2019-02-08T18:58:09.070Z,89.77
2019-02-08T19:00:40.546Z,89.94
2019-02-08T19:03:09.899Z,90.10
2019-02-08T19:05:39.156Z,89.96
2019-02-08T19:08:08.957Z,89.64
2019-02-08T19:10:38.801Z,90.02
2019-02-08T19:13:08.076Z,88.76
2019-02-08T19:15:37.307Z,88.82
2019-02-08T19:18:07.217Z,89.08
2019-02-08T19:20:36.643Z,89.26
2019-02-08T19:23:06.561Z,89.39
2019-02-08T19:25:38.126Z,89.51
2019-02-08T19:28:08.596Z,89.19
2019-02-08T19:30:38.615Z,89.52
2019-02-08T19:33:07.985Z,89.26
2019-02-08T19:35:37.628Z,89.15
2019-02-08T19:38:07.800Z,89.54
2019-02-08T19:40:38.936Z,89.11
2019-02-08T19:43:08.352Z,89.09
2019-02-08T19:45:37.582Z,89.30
2019-02-08T19:48:08.149Z,89.56
2019-02-08T19:50:39.314Z,89.03
2019-02-08T19:53:09.062Z,89.44
2019-02-08T19:55:38.304Z,89.30
2019-02-08T19:58:08.439Z,89.35
2019-02-08T20:00:38.005Z,89.71
2019-02-08T20:03:08.118Z,89.59
2019-02-08T20:05:37.495Z,89.44
2019-02-08T20:08:07.662Z,88.53
2019-02-08T20:10:38.884Z,88.92
2019-02-08T20:13:08.394Z,89.21
2019-02-08T20:15:37.664Z,88.93
2019-02-08T20:18:07.840Z,88.48
2019-02-08T20:20:36.937Z,88.59
2019-02-08T20:23:07.433Z,88.64
2019-02-08T20:25:38.033Z,88.91
2019-02-08T20:28:07.435Z,88.48
2019-02-08T20:30:37.137Z,88.33
2019-02-08T20:33:07.015Z,89.09
2019-02-08T20:35:36.201Z,88.72
2019-02-08T20:38:06.335Z,88.73
2019-02-08T20:40:37.512Z,88.31
2019-02-08T20:43:06.747Z,88.53
2019-02-08T20:45:36.540Z,88.64
2019-02-08T20:48:09.010Z,88.26
2019-02-08T20:50:38.115Z,88.25
2019-02-08T20:53:07.524Z,88.12
2019-02-08T20:55:37.571Z,87.75
2019-02-08T20:58:09.564Z,87.83
2019-02-08T21:00:39.673Z,87.57
2019-02-08T21:03:13.499Z,87.59
2019-02-08T21:05:44.572Z,87.45
2019-02-08T21:08:15.026Z,87.61
2019-02-08T21:10:46.093Z,87.71
2019-02-08T21:13:15.413Z,87.92
2019-02-08T21:15:44.752Z,87.84
2019-02-08T21:18:14.027Z,87.24
2019-02-08T21:20:47.164Z,87.80
2019-02-08T21:23:16.768Z,87.61
2019-02-08T21:25:51.850Z,86.78
2019-02-08T21:28:17.158Z,86.98
2019-02-08T21:30:46.278Z,87.34
2019-02-08T21:33:15.439Z,86.91
2019-02-08T21:35:44.796Z,86.27
2019-02-08T21:38:14.094Z,87.56
2019-02-08T21:40:43.433Z,86.69
2019-02-08T21:43:12.697Z,86.44
2019-02-08T21:45:43.230Z,86.54
2019-02-08T21:48:13.000Z,86.24
2019-02-08T21:50:42.509Z,87.03
2019-02-08T21:53:11.739Z,86.19
2019-02-08T21:55:40.902Z,86.81
2019-02-08T21:58:10.058Z,86.32
2019-02-08T22:00:40.813Z,85.51
2019-02-08T22:03:10.852Z,86.01
2019-02-08T22:05:48.916Z,86.27
2019-02-08T22:08:18.047Z,86.29
2019-02-08T22:10:47.222Z,86.01
2019-02-08T22:13:16.296Z,85.98
2019-02-08T22:15:45.560Z,86.24
2019-02-08T22:18:15.143Z,85.85
2019-02-08T22:20:44.480Z,86.74
2019-02-08T22:23:13.609Z,86.97
2019-02-08T22:25:42.822Z,87.70
2019-02-08T22:28:12.415Z,86.95
2019-02-08T22:30:41.911Z,86.03
2019-02-08T22:33:11.053Z,86.50
2019-02-08T22:35:40.272Z,85.96
2019-02-08T22:38:09.720Z,87.00
2019-02-08T22:40:39.240Z,86.25
2019-02-08T22:43:08.432Z,86.87
2019-02-08T22:45:39.150Z,86.71
2019-02-08T22:48:08.951Z,86.32
2019-02-08T22:50:38.269Z,86.04
2019-02-08T22:53:08.915Z,86.23
2019-02-08T22:55:38.374Z,86.51
2019-02-08T22:58:08.383Z,87.72
2019-02-08T23:01:20.611Z,86.25
2019-02-08T23:03:50.967Z,85.54
2019-02-08T23:06:20.117Z,86.36
2019-02-08T23:08:49.292Z,86.12
2019-02-08T23:11:18.382Z,85.79
2019-02-08T23:13:47.532Z,85.73
2019-02-08T23:16:16.643Z,85.42
2019-02-08T23:18:45.751Z,85.86
2019-02-08T23:21:14.884Z,85.87
2019-02-08T23:23:44.071Z,86.23
2019-02-08T23:26:13.540Z,85.02
2019-02-08T23:28:42.844Z,83.78
2019-02-08T23:31:12.074Z,84.26
2019-02-08T23:33:41.263Z,84.48
2019-02-08T23:36:10.352Z,83.78
2019-02-08T23:38:39.467Z,84.29
2019-02-08T23:41:08.685Z,83.25
2019-02-08T23:43:37.923Z,84.63
2019-02-08T23:46:07.104Z,84.51
2019-02-08T23:48:36.343Z,85.09
2019-02-08T23:51:05.696Z,85.59
2019-02-08T23:53:35.359Z,84.28
2019-02-08T23:56:04.578Z,85.50
2019-02-08T23:58:33.708Z,85.33
